Accueil
METAR-TAF:

METAR-TAF

Aéroports :

Calvi, France

Aéroport de Calvi-Sainte-Catherine

latitude: 42-32N, longitude: 008-48E, altitude: 64 m

Observation

Le bulletin a été fait il y a 23 minutes, à 09:30 UTC
Vent 8 kt de nord, variant entre nord-ouest et nord
Température 29°C
Humidité 37%
Pression 1017 hPa
Visibilité 10 km ou plus
pas de nuages en-dessous de 1500 mètres et pas de cumulonimbus.

METAR: LFKC 170930Z AUTO 35008KT 310V010 CAVOK 29/13 Q1017 NOSIG

Heure: 11:53 (09:53 UTC)

Prévision

Le bulletin a été fait il y a 1 heure et 53 minutes, à 08:00 UTC
Prévision valable du 17 à 09 UTC au 18 à 09 UTC
Vent 8 kt de nord/nord-ouest
Visibilité 10 km ou plus
pas de nuages en-dessous de 1500 mètres et pas de cumulonimbus.
Evoluant progressivement
du 17 à 17 UTC au 17 à 19 UTC
Vent 3 kt de direction variable

TAF: LFKC 170800Z 1709/1809 34008KT CAVOK BECMG 1717/1719 VRB03KT TX31/1712Z TN20/1803Z

Observations et prévisions météorologiques de plus de 4000 aéroports (messages METAR et TAF).

Les stations disponibles sont représentées par des disques jaunes et rouges sur la carte.

Passer la souris dessus pour voir le nom de la station.

Cliquer dessus pour voir les observations et prévisions météorologiques.

Pour changer de carte: cliquez sur les boutons verts avec une croix noire pour zoomer, sur le bouton vert avec un tiret pour effectuer un zoom arrière, ou sur les flèches vertes pour les cartes adjacentes.


METAR-TAF: